sensor_id;sensor_type;location;lat;lon;timestamp;pressure;altitude;pressure_sealevel;temperature;humidity
44988;BME280;35735;52.226;21.254;2023-02-12T00:03:32;101563.06;;;1.95;100.00
44988;BME280;35735;52.226;21.254;2023-02-12T00:08:33;101575.56;;;1.80;100.00
44988;BME280;35735;52.226;21.254;2023-02-12T00:13:34;101565.75;;;1.62;100.00
44988;BME280;35735;52.226;21.254;2023-02-12T00:18:35;101579.63;;;1.57;100.00
44988;BME280;35735;52.226;21.254;2023-02-12T00:23:37;101589.19;;;1.53;100.00
44988;BME280;35735;52.226;21.254;2023-02-12T00:28:38;101602.66;;;1.56;100.00
44988;BME280;35735;52.226;21.254;2023-02-12T00:33:39;101600.81;;;1.55;100.00
44988;BME280;35735;52.226;21.254;2023-02-12T00:38:40;101611.88;;;1.46;100.00
44988;BME280;35735;52.226;21.254;2023-02-12T00:43:40;101618.09;;;1.47;100.00
44988;BME280;35735;52.226;21.254;2023-02-12T00:48:41;101614.97;;;1.54;100.00
44988;BME280;35735;52.226;21.254;2023-02-12T00:53:42;101620.31;;;1.54;100.00
44988;BME280;35735;52.226;21.254;2023-02-12T00:58:42;101631.75;;;1.53;100.00
44988;BME280;35735;52.226;21.254;2023-02-12T01:03:43;101631.13;;;1.57;100.00
44988;BME280;35735;52.226;21.254;2023-02-12T01:08:43;101639.09;;;1.57;100.00
44988;BME280;35735;52.226;21.254;2023-02-12T01:13:44;101652.66;;;1.62;100.00
44988;BME280;35735;52.226;21.254;2023-02-12T01:18:45;101663.38;;;1.63;100.00
44988;BME280;35735;52.226;21.254;2023-02-12T01:23:47;101662.47;;;1.63;100.00
44988;BME280;35735;52.226;21.254;2023-02-12T01:28:51;101680.03;;;1.59;100.00
44988;BME280;35735;52.226;21.254;2023-02-12T01:33:55;101680.84;;;1.58;100.00
44988;BME280;35735;52.226;21.254;2023-02-12T01:38:57;101677.72;;;1.65;100.00
44988;BME280;35735;52.226;21.254;2023-02-12T01:44:07;101682.28;;;1.68;100.00
44988;BME280;35735;52.226;21.254;2023-02-12T01:49:16;101701.91;;;1.70;100.00
44988;BME280;35735;52.226;21.254;2023-02-12T01:54:21;101705.50;;;1.71;100.00
44988;BME280;35735;52.226;21.254;2023-02-12T01:59:23;101707.59;;;1.76;100.00
44988;BME280;35735;52.226;21.254;2023-02-12T02:04:28;101717.84;;;1.85;100.00
44988;BME280;35735;52.226;21.254;2023-02-12T02:09:35;101707.00;;;1.82;100.00
44988;BME280;35735;52.226;21.254;2023-02-12T02:14:37;101718.63;;;1.67;100.00
44988;BME280;35735;52.226;21.254;2023-02-12T02:41:34;101792.56;;;1.88;100.00
44988;BME280;35735;52.226;21.254;2023-02-12T02:46:48;101799.25;;;1.96;100.00
44988;BME280;35735;52.226;21.254;2023-02-12T02:51:54;101799.78;;;2.06;100.00
44988;BME280;35735;52.226;21.254;2023-02-12T02:57:07;101810.03;;;2.14;100.00
44988;BME280;35735;52.226;21.254;2023-02-12T03:02:17;101829.00;;;2.04;100.00
44988;BME280;35735;52.226;21.254;2023-02-12T03:07:37;101832.41;;;1.87;100.00
44988;BME280;35735;52.226;21.254;2023-02-12T03:12:53;101868.13;;;1.75;100.00
44988;BME280;35735;52.226;21.254;2023-02-12T03:17:57;101881.66;;;1.63;100.00
44988;BME280;35735;52.226;21.254;2023-02-12T03:23:10;101892.75;;;1.56;100.00
44988;BME280;35735;52.226;21.254;2023-02-12T03:28:21;101898.00;;;1.55;100.00
44988;BME280;35735;52.226;21.254;2023-02-12T03:39:06;101931.97;;;1.59;100.00
44988;BME280;35735;52.226;21.254;2023-02-12T03:44:17;101928.84;;;1.66;100.00
44988;BME280;35735;52.226;21.254;2023-02-12T03:54:51;101965.72;;;1.60;100.00
44988;BME280;35735;52.226;21.254;2023-02-12T03:59:52;101967.56;;;1.61;100.00
44988;BME280;35735;52.226;21.254;2023-02-12T04:04:52;101979.00;;;1.45;100.00
44988;BME280;35735;52.226;21.254;2023-02-12T04:09:53;101975.16;;;1.40;100.00
44988;BME280;35735;52.226;21.254;2023-02-12T04:15:19;101971.09;;;1.32;100.00
44988;BME280;35735;52.226;21.254;2023-02-12T04:26:20;101982.56;;;1.31;100.00
44988;BME280;35735;52.226;21.254;2023-02-12T04:36:36;101983.19;;;1.26;100.00
44988;BME280;35735;52.226;21.254;2023-02-12T04:41:41;101995.47;;;1.24;100.00
44988;BME280;35735;52.226;21.254;2023-02-12T04:46:42;102002.41;;;1.36;100.00
44988;BME280;35735;52.226;21.254;2023-02-12T04:51:43;101999.75;;;1.36;100.00
44988;BME280;35735;52.226;21.254;2023-02-12T04:56:44;102001.16;;;1.44;100.00
44988;BME280;35735;52.226;21.254;2023-02-12T05:01:45;102013.81;;;1.48;100.00
44988;BME280;35735;52.226;21.254;2023-02-12T05:06:46;102019.13;;;1.48;100.00
44988;BME280;35735;52.226;21.254;2023-02-12T05:11:47;102028.84;;;1.47;100.00
44988;BME280;35735;52.226;21.254;2023-02-12T05:16:47;102044.28;;;1.53;100.00
44988;BME280;35735;52.226;21.254;2023-02-12T05:21:49;102047.94;;;1.55;100.00
44988;BME280;35735;52.226;21.254;2023-02-12T05:26:51;102070.09;;;1.54;100.00
44988;BME280;35735;52.226;21.254;2023-02-12T05:31:52;102083.75;;;1.60;100.00
44988;BME280;35735;52.226;21.254;2023-02-12T05:36:52;102085.22;;;1.55;100.00
44988;BME280;35735;52.226;21.254;2023-02-12T05:41:53;102100.06;;;1.52;100.00
44988;BME280;35735;52.226;21.254;2023-02-12T05:46:54;102119.41;;;1.62;100.00
44988;BME280;35735;52.226;21.254;2023-02-12T05:51:54;102116.84;;;1.64;100.00
44988;BME280;35735;52.226;21.254;2023-02-12T05:56:55;102137.94;;;1.61;100.00
44988;BME280;35735;52.226;21.254;2023-02-12T06:01:55;102136.31;;;1.50;100.00
44988;BME280;35735;52.226;21.254;2023-02-12T06:06:56;102139.91;;;1.50;100.00
44988;BME280;35735;52.226;21.254;2023-02-12T06:11:56;102146.25;;;1.52;100.00
44988;BME280;35735;52.226;21.254;2023-02-12T06:16:57;102143.78;;;1.55;100.00
44988;BME280;35735;52.226;21.254;2023-02-12T06:21:57;102167.56;;;1.52;100.00
44988;BME280;35735;52.226;21.254;2023-02-12T06:26:58;102173.28;;;1.45;100.00
44988;BME280;35735;52.226;21.254;2023-02-12T06:31:59;102183.53;;;1.39;100.00
44988;BME280;35735;52.226;21.254;2023-02-12T06:36:59;102186.59;;;1.32;100.00
44988;BME280;35735;52.226;21.254;2023-02-12T06:42:00;102193.03;;;1.35;100.00
44988;BME280;35735;52.226;21.254;2023-02-12T06:47:00;102201.53;;;1.43;100.00
44988;BME280;35735;52.226;21.254;2023-02-12T06:52:01;102206.84;;;1.56;100.00
44988;BME280;35735;52.226;21.254;2023-02-12T06:57:01;102203.47;;;1.59;100.00
44988;BME280;35735;52.226;21.254;2023-02-12T07:02:02;102208.66;;;1.71;100.00
44988;BME280;35735;52.226;21.254;2023-02-12T07:07:03;102209.37;;;1.68;100.00
44988;BME280;35735;52.226;21.254;2023-02-12T07:12:04;102215.69;;;1.83;100.00
44988;BME280;35735;52.226;21.254;2023-02-12T07:17:05;102217.41;;;1.96;100.00
44988;BME280;35735;52.226;21.254;2023-02-12T07:22:06;102212.47;;;2.02;100.00
44988;BME280;35735;52.226;21.254;2023-02-12T07:27:06;102222.03;;;2.14;100.00
44988;BME280;35735;52.226;21.254;2023-02-12T07:32:07;102223.53;;;2.23;100.00
44988;BME280;35735;52.226;21.254;2023-02-12T07:37:07;102230.75;;;2.39;100.00
44988;BME280;35735;52.226;21.254;2023-02-12T07:42:08;102226.37;;;2.55;100.00
44988;BME280;35735;52.226;21.254;2023-02-12T07:47:08;102228.41;;;2.74;100.00
44988;BME280;35735;52.226;21.254;2023-02-12T07:52:09;102234.88;;;2.77;100.00
44988;BME280;35735;52.226;21.254;2023-02-12T07:57:10;102228.25;;;2.86;99.65
44988;BME280;35735;52.226;21.254;2023-02-12T08:02:10;102236.78;;;2.95;98.97
44988;BME280;35735;52.226;21.254;2023-02-12T08:07:11;102238.16;;;3.03;98.08
44988;BME280;35735;52.226;21.254;2023-02-12T08:12:11;102243.13;;;2.97;97.90
44988;BME280;35735;52.226;21.254;2023-02-12T08:17:12;102244.50;;;3.05;97.68
44988;BME280;35735;52.226;21.254;2023-02-12T08:22:12;102244.88;;;3.11;96.80
44988;BME280;35735;52.226;21.254;2023-02-12T08:27:13;102256.28;;;3.24;97.22
44988;BME280;35735;52.226;21.254;2023-02-12T08:32:14;102262.25;;;3.34;96.40
44988;BME280;35735;52.226;21.254;2023-02-12T08:37:14;102257.81;;;3.50;96.54
44988;BME280;35735;52.226;21.254;2023-02-12T08:42:15;102257.09;;;3.69;96.16
44988;BME280;35735;52.226;21.254;2023-02-12T08:47:15;102260.13;;;3.75;94.86
44988;BME280;35735;52.226;21.254;2023-02-12T08:52:16;102266.03;;;3.84;95.25
44988;BME280;35735;52.226;21.254;2023-02-12T08:57:16;102266.28;;;4.05;94.81
44988;BME280;35735;52.226;21.254;2023-02-12T09:02:17;102262.56;;;4.18;94.52
44988;BME280;35735;52.226;21.254;2023-02-12T09:07:17;102254.38;;;4.15;93.02
44988;BME280;35735;52.226;21.254;2023-02-12T09:12:18;102256.09;;;3.98;92.86
44988;BME280;35735;52.226;21.254;2023-02-12T09:17:18;102263.87;;;4.10;93.30
44988;BME280;35735;52.226;21.254;2023-02-12T09:22:19;102267.91;;;4.18;92.65
44988;BME280;35735;52.226;21.254;2023-02-12T09:27:19;102268.25;;;4.24;92.50
44988;BME280;35735;52.226;21.254;2023-02-12T09:32:20;102277.09;;;4.23;92.33
44988;BME280;35735;52.226;21.254;2023-02-12T09:37:20;102289.62;;;4.41;92.75
44988;BME280;35735;52.226;21.254;2023-02-12T09:42:30;102284.47;;;4.60;92.40
44988;BME280;35735;52.226;21.254;2023-02-12T09:53:16;102290.78;;;4.79;90.77
44988;BME280;35735;52.226;21.254;2023-02-12T09:58:32;102313.88;;;4.77;89.63
44988;BME280;35735;52.226;21.254;2023-02-12T10:03:35;102308.53;;;4.77;90.08
44988;BME280;35735;52.226;21.254;2023-02-12T10:09:07;102298.00;;;4.80;89.84
44988;BME280;35735;52.226;21.254;2023-02-12T10:25:55;102293.50;;;5.13;90.25
44988;BME280;35735;52.226;21.254;2023-02-12T10:31:03;102292.72;;;5.16;89.13
44988;BME280;35735;52.226;21.254;2023-02-12T10:36:31;102288.88;;;5.11;88.76
44988;BME280;35735;52.226;21.254;2023-02-12T10:42:09;102307.75;;;4.96;88.70
44988;BME280;35735;52.226;21.254;2023-02-12T10:47:31;102314.03;;;4.96;88.52
44988;BME280;35735;52.226;21.254;2023-02-12T10:52:44;102297.97;;;4.96;87.72
44988;BME280;35735;52.226;21.254;2023-02-12T10:57:47;102288.72;;;5.08;88.69
44988;BME280;35735;52.226;21.254;2023-02-12T11:13:34;102285.84;;;5.21;89.02
44988;BME280;35735;52.226;21.254;2023-02-12T11:18:35;102286.34;;;5.30;89.20
44988;BME280;35735;52.226;21.254;2023-02-12T11:23:42;102304.37;;;5.34;88.99
44988;BME280;35735;52.226;21.254;2023-02-12T11:39:33;102290.47;;;5.60;88.30
44988;BME280;35735;52.226;21.254;2023-02-12T11:44:37;102287.75;;;5.58;87.28
44988;BME280;35735;52.226;21.254;2023-02-12T11:49:42;102275.84;;;5.53;87.37
44988;BME280;35735;52.226;21.254;2023-02-12T11:54:49;102277.47;;;5.49;87.29
44988;BME280;35735;52.226;21.254;2023-02-12T11:59:52;102271.81;;;5.43;86.64
44988;BME280;35735;52.226;21.254;2023-02-12T12:04:55;102266.88;;;5.34;86.53
44988;BME280;35735;52.226;21.254;2023-02-12T12:10:20;102274.84;;;5.33;87.00
44988;BME280;35735;52.226;21.254;2023-02-12T12:15:32;102273.84;;;5.31;87.24
44988;BME280;35735;52.226;21.254;2023-02-12T12:20:59;102270.09;;;5.27;86.91
44988;BME280;35735;52.226;21.254;2023-02-12T12:26:07;102264.13;;;5.33;86.75
44988;BME280;35735;52.226;21.254;2023-02-12T12:31:14;102252.34;;;5.29;87.17
44988;BME280;35735;52.226;21.254;2023-02-12T12:36:40;102260.47;;;5.31;87.47
44988;BME280;35735;52.226;21.254;2023-02-12T13:04:45;102235.06;;;5.05;87.71
44988;BME280;35735;52.226;21.254;2023-02-12T13:10:29;102231.44;;;5.04;88.94
44988;BME280;35735;52.226;21.254;2023-02-12T13:15:56;102222.00;;;4.94;88.48
44988;BME280;35735;52.226;21.254;2023-02-12T13:21:49;102219.94;;;4.89;88.25
44988;BME280;35735;52.226;21.254;2023-02-12T13:27:01;102220.94;;;4.73;88.58
44988;BME280;35735;52.226;21.254;2023-02-12T13:32:10;102232.81;;;4.61;88.87
44988;BME280;35735;52.226;21.254;2023-02-12T13:37:19;102231.41;;;4.52;88.88
44988;BME280;35735;52.226;21.254;2023-02-12T13:42:34;102229.38;;;4.48;89.27
44988;BME280;35735;52.226;21.254;2023-02-12T13:48:02;102229.38;;;4.48;89.09
44988;BME280;35735;52.226;21.254;2023-02-12T13:58:50;102238.16;;;4.29;89.22
44988;BME280;35735;52.226;21.254;2023-02-12T14:03:52;102238.06;;;4.11;89.35
44988;BME280;35735;52.226;21.254;2023-02-12T14:09:07;102227.97;;;4.05;90.02
44988;BME280;35735;52.226;21.254;2023-02-12T14:14:08;102243.56;;;3.97;90.07
44988;BME280;35735;52.226;21.254;2023-02-12T14:24:54;102247.59;;;3.74;90.43
44988;BME280;35735;52.226;21.254;2023-02-12T14:30:35;102242.94;;;3.70;90.41
44988;BME280;35735;52.226;21.254;2023-02-12T14:35:44;102246.34;;;3.67;90.83
44988;BME280;35735;52.226;21.254;2023-02-12T14:40:46;102233.84;;;3.66;91.13
44988;BME280;35735;52.226;21.254;2023-02-12T14:45:48;102238.25;;;3.66;91.52
44988;BME280;35735;52.226;21.254;2023-02-12T14:50:49;102247.69;;;3.59;91.85
44988;BME280;35735;52.226;21.254;2023-02-12T14:55:49;102232.00;;;3.50;92.35
44988;BME280;35735;52.226;21.254;2023-02-12T15:00:53;102234.06;;;3.55;92.92
44988;BME280;35735;52.226;21.254;2023-02-12T15:06:32;102245.56;;;3.53;93.09
44988;BME280;35735;52.226;21.254;2023-02-12T15:11:42;102240.50;;;3.43;93.24
44988;BME280;35735;52.226;21.254;2023-02-12T15:16:52;102250.28;;;3.43;93.68
44988;BME280;35735;52.226;21.254;2023-02-12T15:21:55;102248.91;;;3.34;93.92
44988;BME280;35735;52.226;21.254;2023-02-12T15:26:57;102244.78;;;3.25;94.34
44988;BME280;35735;52.226;21.254;2023-02-12T15:32:03;102246.25;;;3.20;94.67
44988;BME280;35735;52.226;21.254;2023-02-12T15:37:06;102244.03;;;3.27;95.01
44988;BME280;35735;52.226;21.254;2023-02-12T15:47:35;102256.28;;;3.24;95.34
44988;BME280;35735;52.226;21.254;2023-02-12T15:52:44;102260.59;;;3.22;95.63
44988;BME280;35735;52.226;21.254;2023-02-12T15:57:50;102271.66;;;3.13;95.75
44988;BME280;35735;52.226;21.254;2023-02-12T16:02:51;102274.13;;;3.10;96.14
44988;BME280;35735;52.226;21.254;2023-02-12T16:07:52;102272.56;;;3.13;96.22
44988;BME280;35735;52.226;21.254;2023-02-12T16:12:53;102267.81;;;3.08;96.25
44988;BME280;35735;52.226;21.254;2023-02-12T16:17:54;102277.53;;;3.07;96.44
44988;BME280;35735;52.226;21.254;2023-02-12T16:22:55;102270.19;;;3.03;96.61
44988;BME280;35735;52.226;21.254;2023-02-12T16:28:12;102278.84;;;2.99;96.79
44988;BME280;35735;52.226;21.254;2023-02-12T16:38:50;102248.47;;;2.97;97.05
44988;BME280;35735;52.226;21.254;2023-02-12T16:49:01;102242.94;;;2.94;97.58
44988;BME280;35735;52.226;21.254;2023-02-12T16:54:03;102236.31;;;2.87;97.78
44988;BME280;35735;52.226;21.254;2023-02-12T16:59:30;102234.59;;;2.88;98.10
44988;BME280;35735;52.226;21.254;2023-02-12T17:04:30;102234.59;;;2.88;98.03
44988;BME280;35735;52.226;21.254;2023-02-12T17:09:31;102221.88;;;2.84;97.97
44988;BME280;35735;52.226;21.254;2023-02-12T17:14:32;102219.69;;;2.76;97.97
44988;BME280;35735;52.226;21.254;2023-02-12T17:19:32;102215.44;;;2.65;98.10
44988;BME280;35735;52.226;21.254;2023-02-12T17:24:33;102241.09;;;2.63;98.35
44988;BME280;35735;52.226;21.254;2023-02-12T17:29:34;102236.47;;;2.60;98.68
44988;BME280;35735;52.226;21.254;2023-02-12T17:34:35;102264.50;;;2.54;98.62
44988;BME280;35735;52.226;21.254;2023-02-12T17:39:37;102256.87;;;2.45;98.62
44988;BME280;35735;52.226;21.254;2023-02-12T17:44:38;102277.53;;;2.34;98.87
44988;BME280;35735;52.226;21.254;2023-02-12T17:49:39;102269.12;;;2.28;99.20
44988;BME280;35735;52.226;21.254;2023-02-12T17:54:43;102270.59;;;2.23;99.48
44988;BME280;35735;52.226;21.254;2023-02-12T17:59:44;102281.06;;;2.20;99.68
44988;BME280;35735;52.226;21.254;2023-02-12T18:04:44;102274.41;;;2.13;100.00
44988;BME280;35735;52.226;21.254;2023-02-12T18:09:45;102266.97;;;2.08;100.00
44988;BME280;35735;52.226;21.254;2023-02-12T18:14:45;102250.56;;;2.01;100.00
44988;BME280;35735;52.226;21.254;2023-02-12T18:19:47;102240.56;;;1.97;100.00
44988;BME280;35735;52.226;21.254;2023-02-12T18:24:48;102242.47;;;2.00;100.00
44988;BME280;35735;52.226;21.254;2023-02-12T18:29:49;102248.09;;;2.04;100.00
44988;BME280;35735;52.226;21.254;2023-02-12T18:34:50;102238.00;;;1.99;100.00
44988;BME280;35735;52.226;21.254;2023-02-12T18:39:50;102238.94;;;1.86;100.00
44988;BME280;35735;52.226;21.254;2023-02-12T18:44:51;102238.53;;;1.80;100.00
44988;BME280;35735;52.226;21.254;2023-02-12T18:49:51;102235.47;;;1.74;100.00
44988;BME280;35735;52.226;21.254;2023-02-12T18:54:52;102231.19;;;1.76;100.00
44988;BME280;35735;52.226;21.254;2023-02-12T18:59:52;102239.19;;;1.76;100.00
44988;BME280;35735;52.226;21.254;2023-02-12T19:04:53;102224.62;;;1.84;100.00
44988;BME280;35735;52.226;21.254;2023-02-12T19:09:53;102229.59;;;1.93;100.00
44988;BME280;35735;52.226;21.254;2023-02-12T19:14:54;102232.47;;;1.96;100.00
44988;BME280;35735;52.226;21.254;2023-02-12T19:19:54;102233.78;;;2.02;100.00
44988;BME280;35735;52.226;21.254;2023-02-12T19:24:55;102223.69;;;2.12;100.00
44988;BME280;35735;52.226;21.254;2023-02-12T19:29:56;102227.94;;;2.23;100.00
44988;BME280;35735;52.226;21.254;2023-02-12T19:34:56;102227.81;;;2.35;100.00
44988;BME280;35735;52.226;21.254;2023-02-12T19:39:57;102215.56;;;2.38;100.00
44988;BME280;35735;52.226;21.254;2023-02-12T19:44:57;102206.03;;;2.42;100.00
44988;BME280;35735;52.226;21.254;2023-02-12T19:49:58;102199.41;;;2.50;100.00
44988;BME280;35735;52.226;21.254;2023-02-12T19:54:58;102192.53;;;2.54;100.00
44988;BME280;35735;52.226;21.254;2023-02-12T19:59:59;102193.47;;;2.54;100.00
44988;BME280;35735;52.226;21.254;2023-02-12T20:05:00;102187.38;;;2.57;100.00
44988;BME280;35735;52.226;21.254;2023-02-12T20:10:00;102180.75;;;2.65;100.00
44988;BME280;35735;52.226;21.254;2023-02-12T20:15:01;102175.00;;;2.72;100.00
44988;BME280;35735;52.226;21.254;2023-02-12T20:20:03;102178.00;;;2.78;100.00
44988;BME280;35735;52.226;21.254;2023-02-12T20:25:05;102187.38;;;2.87;100.00
44988;BME280;35735;52.226;21.254;2023-02-12T20:30:06;102180.13;;;2.99;100.00
44988;BME280;35735;52.226;21.254;2023-02-12T20:35:07;102176.97;;;3.06;100.00
44988;BME280;35735;52.226;21.254;2023-02-12T20:40:08;102160.97;;;3.06;100.00
44988;BME280;35735;52.226;21.254;2023-02-12T20:45:09;102154.06;;;3.10;100.00
44988;BME280;35735;52.226;21.254;2023-02-12T20:50:09;102138.06;;;3.10;100.00
44988;BME280;35735;52.226;21.254;2023-02-12T20:55:10;102138.87;;;3.09;100.00
44988;BME280;35735;52.226;21.254;2023-02-12T21:00:11;102136.19;;;3.09;100.00
44988;BME280;35735;52.226;21.254;2023-02-12T21:05:12;102137.31;;;3.12;100.00
44988;BME280;35735;52.226;21.254;2023-02-12T21:10:13;102134.00;;;3.17;100.00
44988;BME280;35735;52.226;21.254;2023-02-12T21:15:13;102138.31;;;3.14;100.00
44988;BME280;35735;52.226;21.254;2023-02-12T21:20:14;102137.84;;;3.22;100.00
44988;BME280;35735;52.226;21.254;2023-02-12T21:25:15;102126.16;;;3.20;100.00
44988;BME280;35735;52.226;21.254;2023-02-12T21:30:16;102127.34;;;3.25;100.00
44988;BME280;35735;52.226;21.254;2023-02-12T21:35:16;102124.00;;;3.29;100.00
44988;BME280;35735;52.226;21.254;2023-02-12T21:40:17;102118.50;;;3.26;100.00
44988;BME280;35735;52.226;21.254;2023-02-12T21:45:17;102108.47;;;3.22;100.00
44988;BME280;35735;52.226;21.254;2023-02-12T21:50:18;102098.63;;;3.21;100.00
44988;BME280;35735;52.226;21.254;2023-02-12T21:55:18;102109.16;;;3.18;100.00
44988;BME280;35735;52.226;21.254;2023-02-12T22:00:19;102103.81;;;3.18;100.00
44988;BME280;35735;52.226;21.254;2023-02-12T22:05:20;102105.81;;;3.22;100.00
44988;BME280;35735;52.226;21.254;2023-02-12T22:10:20;102090.63;;;3.21;100.00
44988;BME280;35735;52.226;21.254;2023-02-12T22:15:21;102087.41;;;3.26;100.00
44988;BME280;35735;52.226;21.254;2023-02-12T22:20:22;102084.06;;;3.30;100.00
44988;BME280;35735;52.226;21.254;2023-02-12T22:25:22;102094.72;;;3.30;100.00
44988;BME280;35735;52.226;21.254;2023-02-12T22:30:23;102087.66;;;3.31;100.00
44988;BME280;35735;52.226;21.254;2023-02-12T22:35:24;102092.41;;;3.37;100.00
44988;BME280;35735;52.226;21.254;2023-02-12T22:40:24;102096.16;;;3.40;100.00
44988;BME280;35735;52.226;21.254;2023-02-12T22:45:25;102081.31;;;3.45;100.00
44988;BME280;35735;52.226;21.254;2023-02-12T22:50:25;102070.91;;;3.50;100.00
44988;BME280;35735;52.226;21.254;2023-02-12T22:55:26;102063.87;;;3.52;100.00
44988;BME280;35735;52.226;21.254;2023-02-12T23:00:26;102060.56;;;3.56;100.00
44988;BME280;35735;52.226;21.254;2023-02-12T23:05:27;102050.63;;;3.53;100.00
44988;BME280;35735;52.226;21.254;2023-02-12T23:10:27;102045.72;;;3.61;100.00
44988;BME280;35735;52.226;21.254;2023-02-12T23:15:29;102037.03;;;3.65;100.00
44988;BME280;35735;52.226;21.254;2023-02-12T23:20:29;102039.22;;;3.73;100.00
44988;BME280;35735;52.226;21.254;2023-02-12T23:25:30;102033.09;;;3.75;100.00
44988;BME280;35735;52.226;21.254;2023-02-12T23:30:31;102018.22;;;3.80;100.00
44988;BME280;35735;52.226;21.254;2023-02-12T23:35:31;102013.06;;;3.83;100.00
44988;BME280;35735;52.226;21.254;2023-02-12T23:40:33;102012.38;;;3.87;100.00
44988;BME280;35735;52.226;21.254;2023-02-12T23:45:33;102003.84;;;3.95;100.00
44988;BME280;35735;52.226;21.254;2023-02-12T23:50:34;101995.66;;;3.92;100.00
44988;BME280;35735;52.226;21.254;2023-02-12T23:55:36;101988.72;;;3.95;100.00
